Time;durP1;ratioP1;P1;durP2;ratioP2;P2;SDS_P1;SDS_P2;PMS_P1;PMS_P2;Temp;Humidity;BMP_temperature;BMP_pressure;BME280_temperature;BME280_humidity;BME280_pressure;Samples;Min_cycle;Max_cycle;Signal;HPM_P1;HPM_P2
2023/02/20 00:00:45;;;;;;;;;;;;;;;17.76;61.87;101490.05;2261185;78;50467;-74
2023/02/20 00:03:47;;;;;;;;;;;;;;;17.74;61.93;101473.30;2286646;78;51515;-73
2023/02/20 00:06:49;;;;;;;;;;;;;;;17.73;61.91;101475.64;2263123;78;51430;-73
2023/02/20 00:09:50;;;;;;;;;;;;;;;17.72;61.91;101474.78;2232062;78;49513;-74
2023/02/20 00:12:52;;;;;;;;;;;;;;;17.70;62.00;101470.58;2249308;78;49958;-73
2023/02/20 00:15:53;;;;;;;;;;;;;;;17.69;62.10;101472.92;2249416;79;51476;-73
2023/02/20 00:18:55;;;;;;;;;;;;;;;17.70;62.15;101467.91;2298717;76;50157;-73
2023/02/20 00:21:57;;;;;;;;;;;;;;;17.70;62.12;101458.06;2255071;77;51184;-75
2023/02/20 00:24:58;;;;;;;;;;;;;;;17.71;62.12;101465.08;2251031;79;50669;-74
2023/02/20 00:28:00;;;;;;;;;;;;;;;17.73;62.04;101462.26;2250801;79;53409;-73
2023/02/20 00:31:01;;;;;;;;;;;;;;;17.73;62.11;101458.24;2249851;78;50610;-74
2023/02/20 00:34:03;;;;;;;;;;;;;;;17.73;62.05;101443.02;2226445;79;52367;-73
2023/02/20 00:37:04;;;;;;;;;;;;;;;17.73;62.15;101439.51;2226575;79;51508;-74
2023/02/20 00:40:06;;;;;;;;;;;;;;;17.72;62.11;101434.63;2251071;78;51416;-74
2023/02/20 00:43:08;;;;;;;;;;;;;;;17.71;62.15;101438.82;2226578;79;52232;-74
2023/02/20 00:46:13;;;;;;;;;;;;;;;17.70;62.15;101435.78;2226438;79;51225;-74
2023/02/20 00:49:15;;;;;;;;;;;;;;;17.68;62.24;101435.12;2306013;76;50672;-73
2023/02/20 00:52:16;;;;;;;;;;;;;;;17.70;62.23;101431.30;2290622;76;51445;-74
2023/02/20 00:55:18;;;;;;;;;;;;;;;17.74;62.19;101432.64;2263300;78;53197;-74
2023/02/20 00:58:20;;;;;;;;;;;;;;;17.79;62.09;101421.47;2262918;78;51405;-74
2023/02/20 01:01:21;;;;;;;;;;;;;;;17.80;62.01;101428.52;2268328;77;50308;-74
2023/02/20 01:04:23;;;;;;;;;;;;;;;17.80;62.16;101416.00;2286682;78;50638;-74
2023/02/20 01:07:25;;;;;;;;;;;;;;;17.76;62.34;101405.73;2286867;78;50363;-74
2023/02/20 01:10:26;;;;;;;;;;;;;;;17.75;62.38;101402.69;2228873;78;51988;-74
2023/02/20 01:13:28;;;;;;;;;;;;;;;17.75;62.31;101406.70;2283098;78;50736;-74
2023/02/20 01:16:29;;;;;;;;;;;;;;;17.73;62.32;101411.41;2274833;78;51419;-74
2023/02/20 01:19:31;;;;;;;;;;;;;;;17.71;62.33;101403.52;2285953;76;51471;-74
2023/02/20 01:22:32;;;;;;;;;;;;;;;17.72;62.34;101394.48;2275699;77;52511;-73
2023/02/20 01:25:34;;;;;;;;;;;;;;;17.71;62.40;101386.13;2262430;78;51510;-74
2023/02/20 01:28:36;;;;;;;;;;;;;;;17.70;62.37;101384.45;2286803;78;51435;-74
2023/02/20 01:31:37;;;;;;;;;;;;;;;17.71;62.38;101379.94;2274405;78;51334;-73
2023/02/20 01:34:39;;;;;;;;;;;;;;;17.72;62.38;101381.09;2226525;79;51146;-74
2023/02/20 01:37:40;;;;;;;;;;;;;;;17.73;62.39;101374.77;2249531;78;50313;-74
2023/02/20 01:40:44;;;;;;;;;;;;;;;17.77;62.33;101364.56;2249453;78;50253;-74
2023/02/20 01:43:45;;;;;;;;;;;;;;;17.71;62.41;101347.81;2287120;77;50853;-75
2023/02/20 01:46:48;;;;;;;;;;;;;;;17.67;62.57;101342.44;2256024;76;52461;-73
2023/02/20 01:49:51;;;;;;;;;;;;;;;17.62;62.73;101342.91;2283515;76;50359;-73
2023/02/20 01:52:53;;;;;;;;;;;;;;;17.66;62.67;101340.77;2275240;78;51573;-74
2023/02/20 01:55:56;;;;;;;;;;;;;;;17.64;62.72;101344.42;2286784;78;50282;-74
2023/02/20 01:58:58;;;;;;;;;;;;;;;17.69;62.62;101324.38;2249575;77;50720;-75
2023/02/20 02:20:14;;;;;;;;;;;;;;;17.71;62.49;101287.59;2305713;75;22298;-73
2023/02/20 02:23:21;;;;;;;;;;;;;;;17.70;62.51;101292.59;2261861;78;50989;-74
2023/02/20 02:26:39;;;;;;;;;;;;;;;17.69;62.53;101290.93;2260510;78;52442;-73
2023/02/20 02:29:59;;;;;;;;;;;;;;;17.65;62.61;101283.73;2287251;77;50368;-74
2023/02/20 02:33:05;;;;;;;;;;;;;;;17.66;62.55;101289.92;2278204;77;50808;-74
2023/02/20 02:36:21;;;;;;;;;;;;;;;17.64;62.58;101284.20;2252364;78;51484;-73
2023/02/20 02:39:27;;;;;;;;;;;;;;;17.65;62.65;101282.40;2194976;80;50147;-74
2023/02/20 02:42:43;;;;;;;;;;;;;;;17.66;62.62;101265.83;2215274;79;51318;-74
2023/02/20 02:45:46;;;;;;;;;;;;;;;17.68;62.58;101275.88;2179290;81;51619;-73
2023/02/20 02:48:49;;;;;;;;;;;;;;;17.71;62.53;101264.84;2241518;78;50501;-74
2023/02/20 02:51:51;;;;;;;;;;;;;;;17.70;62.55;101244.42;2191489;80;51368;-73
2023/02/20 02:54:52;;;;;;;;;;;;;;;17.72;62.52;101243.76;2242221;78;50386;-73
2023/02/20 02:57:54;;;;;;;;;;;;;;;17.69;62.57;101247.60;2245203;79;50241;-73
2023/02/20 03:00:56;;;;;;;;;;;;;;;17.66;62.63;101239.07;2245326;79;50356;-72
2023/02/20 03:03:58;;;;;;;;;;;;;;;17.60;62.75;101244.07;2206568;78;50181;-73
2023/02/20 03:07:02;;;;;;;;;;;;;;;17.62;62.74;101236.72;2215600;78;49981;-73
2023/02/20 03:10:05;;;;;;;;;;;;;;;17.64;62.72;101245.41;2215074;80;50385;-73
2023/02/20 03:13:06;;;;;;;;;;;;;;;17.64;62.71;101235.20;2215516;78;51782;-72
2023/02/20 03:16:08;;;;;;;;;;;;;;;17.64;62.73;101228.52;2246720;78;51714;-72
2023/02/20 03:19:12;;;;;;;;;;;;;;;17.68;62.69;101219.68;2304935;76;50461;-73
2023/02/20 03:22:15;;;;;;;;;;;;;;;17.70;62.59;101214.50;2326859;76;22437;-73
2023/02/20 03:25:24;;;;;;;;;;;;;;;17.70;62.62;101214.98;2269802;76;50361;-73
2023/02/20 03:28:28;;;;;;;;;;;;;;;17.72;62.58;101204.95;2251074;79;51239;-74
2023/02/20 03:31:31;;;;;;;;;;;;;;;17.71;62.63;101205.46;2249748;79;51514;-73
2023/02/20 03:44:32;;;;;;;;;;;;;;;17.59;63.06;101173.31;2286938;78;23261;-75
2023/02/20 03:47:34;;;;;;;;;;;;;;;17.61;62.94;101171.31;2289243;76;50639;-74
2023/02/20 03:53:55;;;;;;;;;;;;;;;17.67;62.69;101173.83;2294394;76;22357;-73
2023/02/20 03:56:58;;;;;;;;;;;;;;;17.70;62.55;101172.16;2262886;78;50203;-73
2023/02/20 04:00:01;;;;;;;;;;;;;;;17.70;62.60;101174.36;2285647;76;50390;-74
2023/02/20 04:03:04;;;;;;;;;;;;;;;17.72;62.64;101179.52;2285130;77;51495;-74
2023/02/20 04:06:06;;;;;;;;;;;;;;;17.71;62.66;101183.22;2228104;78;51643;-72
2023/02/20 04:09:09;;;;;;;;;;;;;;;17.66;62.66;101185.04;2287740;78;51483;-73
2023/02/20 04:12:19;;;;;;;;;;;;;;;17.61;62.89;101186.03;2285987;77;51509;-73
2023/02/20 04:15:20;;;;;;;;;;;;;;;17.59;63.09;101181.34;2286759;78;50701;-73
2023/02/20 04:18:23;;;;;;;;;;;;;;;17.58;63.16;101171.14;2260928;76;50359;-73
2023/02/20 04:21:31;;;;;;;;;;;;;;;17.59;63.07;101159.93;2277552;76;51582;-73
2023/02/20 04:24:36;;;;;;;;;;;;;;;17.57;62.97;101166.80;2249677;78;22691;-73
2023/02/20 04:27:38;;;;;;;;;;;;;;;17.63;62.87;101162.13;2251492;78;50299;-74
2023/02/20 04:30:39;;;;;;;;;;;;;;;17.67;62.73;101157.27;2226365;79;51542;-73
2023/02/20 04:33:41;;;;;;;;;;;;;;;17.70;62.56;101146.25;2249553;78;50749;-74
2023/02/20 04:36:43;;;;;;;;;;;;;;;17.72;62.54;101145.56;2257479;78;51498;-73
2023/02/20 04:39:44;;;;;;;;;;;;;;;17.73;62.66;101143.75;2286586;78;51476;-73
2023/02/20 04:42:46;;;;;;;;;;;;;;;17.64;62.72;101126.31;2263169;78;52583;-73
2023/02/20 04:45:48;;;;;;;;;;;;;;;17.67;62.71;101127.00;2257320;78;51470;-74
2023/02/20 04:48:49;;;;;;;;;;;;;;;17.60;62.94;101116.97;2283585;76;50634;-76
2023/02/20 04:51:51;;;;;;;;;;;;;;;17.57;62.96;101113.77;2298318;77;51316;-74
2023/02/20 04:54:52;;;;;;;;;;;;;;;17.61;62.87;101119.97;2224470;79;51218;-74
2023/02/20 04:57:55;;;;;;;;;;;;;;;17.61;62.84;101111.94;2250043;78;50271;-74
2023/02/20 05:00:56;;;;;;;;;;;;;;;17.62;62.92;101112.30;2253193;78;50699;-74
2023/02/20 05:03:58;;;;;;;;;;;;;;;17.63;62.75;101102.42;2202492;79;51212;-74
2023/02/20 05:06:59;;;;;;;;;;;;;;;17.66;62.74;101093.22;2252034;78;50657;-74
2023/02/20 05:10:01;;;;;;;;;;;;;;;17.67;62.67;101087.69;2262676;78;52539;-74
2023/02/20 05:13:03;;;;;;;;;;;;;;;17.66;62.64;101078.50;2263219;78;50725;-74
2023/02/20 05:16:04;;;;;;;;;;;;;;;17.64;62.68;101067.44;2286519;78;51494;-73
2023/02/20 05:19:06;;;;;;;;;;;;;;;17.66;62.78;101058.43;2272210;76;51545;-74
2023/02/20 05:22:20;;;;;;;;;;;;;;;17.62;63.04;101056.09;2263381;77;51260;-74
2023/02/20 05:25:22;;;;;;;;;;;;;;;17.57;63.10;101051.74;2279262;78;51565;-72
2023/02/20 05:28:23;;;;;;;;;;;;;;;17.54;63.19;101046.70;2251154;78;50237;-73
2023/02/20 05:31:25;;;;;;;;;;;;;;;17.56;63.10;101044.70;2226489;79;50668;-72
2023/02/20 05:34:26;;;;;;;;;;;;;;;17.59;63.02;101051.56;2202521;79;51668;-73
2023/02/20 05:37:28;;;;;;;;;;;;;;;17.61;63.01;101058.41;2249367;78;50638;-73
2023/02/20 05:40:31;;;;;;;;;;;;;;;17.69;63.34;101055.41;2249011;79;50356;-71
2023/02/20 05:43:32;;;;;;;;;;;;;;;17.72;62.99;101045.70;2226686;79;51539;-73
2023/02/20 05:46:36;;;;;;;;;;;;;;;17.73;62.62;101051.41;2227936;78;52619;-71
2023/02/20 05:49:37;;;;;;;;;;;;;;;17.71;62.44;101042.20;2300100;76;51297;-72
2023/02/20 05:52:39;;;;;;;;;;;;;;;17.67;62.41;101041.36;2327376;76;50239;-73
2023/02/20 05:55:40;;;;;;;;;;;;;;;17.64;62.39;101036.67;2329003;76;50436;-73
2023/02/20 05:58:43;;;;;;;;;;;;;;;17.61;62.15;101037.01;2302441;75;51611;-72
2023/02/20 06:01:44;;;;;;;;;;;;;;;17.58;61.77;101028.49;2317413;76;51769;-73
2023/02/20 06:04:46;;;;;;;;;;;;;;;17.60;62.17;101025.16;2265881;77;51449;-72
2023/02/20 06:07:47;;;;;;;;;;;;;;;17.58;61.37;101019.13;2298962;77;50595;-72
2023/02/20 06:10:49;;;;;;;;;;;;;;;17.54;61.50;101004.40;2239877;77;51276;-72
2023/02/20 06:13:50;;;;;;;;;;;;;;;17.57;62.10;100992.87;2265670;77;50218;-72
2023/02/20 06:16:52;;;;;;;;;;;;;;;17.62;61.99;100978.49;2260589;78;50629;-72
2023/02/20 06:19:54;;;;;;;;;;;;;;;17.65;61.88;100982.67;2272125;78;51533;-72
2023/02/20 06:22:56;;;;;;;;;;;;;;;17.67;61.77;100973.12;2235403;79;52409;-72
2023/02/20 06:25:57;;;;;;;;;;;;;;;17.67;61.67;100973.12;2251081;79;50424;-72
2023/02/20 06:28:59;;;;;;;;;;;;;;;17.67;61.60;100967.26;2263794;78;50643;-72
2023/02/20 06:32:01;;;;;;;;;;;;;;;17.65;61.68;100962.60;2247606;79;51569;-72
2023/02/20 06:35:02;;;;;;;;;;;;;;;17.61;61.77;100974.12;2202811;79;52311;-72
2023/02/20 06:38:04;;;;;;;;;;;;;;;17.60;61.75;100974.31;2259182;77;51444;-72
2023/02/20 06:41:05;;;;;;;;;;;;;;;17.57;61.99;100964.78;2256721;78;52329;-73
2023/02/20 06:44:07;;;;;;;;;;;;;;;17.54;61.64;100956.23;2249527;78;50656;-74
2023/02/20 06:47:09;;;;;;;;;;;;;;;17.59;62.95;100951.22;2228046;78;51107;-72
2023/02/20 06:50:10;;;;;;;;;;;;;;;17.67;62.22;100949.03;2263940;78;50381;-74
2023/02/20 06:53:12;;;;;;;;;;;;;;;17.73;61.96;100965.27;2278666;78;50272;-74
2023/02/20 06:56:14;;;;;;;;;;;;;;;17.78;61.76;100969.61;2263273;78;50290;-74
2023/02/20 06:59:16;;;;;;;;;;;;;;;17.80;61.72;100937.33;2261690;76;52428;-75
2023/02/20 07:02:17;;;;;;;;;;;;;;;17.81;61.74;100936.34;2262088;78;50165;-74
2023/02/20 07:05:19;;;;;;;;;;;;;;;17.81;61.72;100944.38;2286852;78;50353;-74
2023/02/20 07:08:20;;;;;;;;;;;;;;;17.77;61.86;100952.36;2261973;78;50686;-74
2023/02/20 07:11:22;;;;;;;;;;;;;;;17.74;61.93;100936.14;2263101;78;52462;-74
2023/02/20 07:14:24;;;;;;;;;;;;;;;17.74;61.92;100935.31;2262101;78;50080;-74
2023/02/20 07:17:25;;;;;;;;;;;;;;;17.69;62.08;100951.05;2293583;76;50648;-74
2023/02/20 07:20:27;;;;;;;;;;;;;;;17.63;62.20;100905.23;2319512;76;50312;-75
2023/02/20 07:23:28;;;;;;;;;;;;;;;17.58;62.34;100914.77;2308301;76;50058;-74
2023/02/20 07:26:30;;;;;;;;;;;;;;;17.61;62.23;100918.45;2330518;76;50437;-74
2023/02/20 07:29:32;;;;;;;;;;;;;;;17.64;62.10;100917.59;2334438;76;50661;-74
2023/02/20 07:32:33;;;;;;;;;;;;;;;17.67;62.03;100910.23;2330371;76;50253;-74
2023/02/20 07:35:35;;;;;;;;;;;;;;;17.67;61.96;100912.91;2308492;76;51235;-74
2023/02/20 07:38:37;;;;;;;;;;;;;;;17.67;61.96;100943.68;2334536;76;50433;-74
2023/02/20 07:41:38;;;;;;;;;;;;;;;17.68;61.86;100918.61;2330486;76;51488;-75
2023/02/20 07:44:40;;;;;;;;;;;;;;;17.62;61.99;100930.33;2334779;76;51629;-74
2023/02/20 07:47:42;;;;;;;;;;;;;;;17.60;62.02;100905.57;2321916;76;50261;-74
2023/02/20 07:50:43;;;;;;;;;;;;;;;17.56;62.05;100914.94;2316990;76;51633;-74
2023/02/20 07:53:48;;;;;;;;;;;;;;;17.52;62.11;100898.91;2328116;76;52190;-74
2023/02/20 07:56:50;;;;;;;;;;;;;;;17.51;62.12;100888.36;2326335;76;50489;-74
2023/02/20 07:59:52;;;;;;;;;;;;;;;17.50;62.22;100887.53;2301640;75;51187;-74
2023/02/20 08:02:53;;;;;;;;;;;;;;;17.54;62.07;100882.16;2301844;76;51181;-74
2023/02/20 08:05:55;;;;;;;;;;;;;;;17.60;61.89;100889.52;2326215;76;51517;-73
2023/02/20 08:08:56;;;;;;;;;;;;;;;17.69;61.64;100894.84;2327721;76;50219;-74
2023/02/20 08:11:58;;;;;;;;;;;;;;;17.73;61.47;100880.13;2301822;76;49685;-73
2023/02/20 08:15:00;;;;;;;;;;;;;;;17.74;61.39;100873.76;2328001;76;50638;-74
2023/02/20 08:18:01;;;;;;;;;;;;;;;17.70;61.37;100854.55;2297771;76;50395;-73
2023/02/20 08:21:03;;;;;;;;;;;;;;;17.69;61.39;100846.17;2309861;76;52344;-73
2023/02/20 08:24:05;;;;;;;;;;;;;;;17.73;61.24;100847.50;2301585;76;51634;-73
2023/02/20 08:27:07;;;;;;;;;;;;;;;17.68;61.36;100832.98;2328112;76;51551;-73
2023/02/20 08:30:10;;;;;;;;;;;;;;;17.69;61.31;100837.31;2327755;76;51510;-72
2023/02/20 08:33:12;;;;;;;;;;;;;;;17.65;61.15;100827.47;2326384;76;50448;-72
2023/02/20 08:36:14;;;;;;;;;;;;;;;17.61;61.31;100832.82;2301469;76;51664;-72
2023/02/20 08:39:16;;;;;;;;;;;;;;;17.62;61.29;100819.76;2327763;76;52333;-72
2023/02/20 08:42:18;;;;;;;;;;;;;;;17.70;61.09;100821.57;2326386;76;50254;-72
2023/02/20 08:45:19;;;;;;;;;;;;;;;17.78;60.86;100807.67;2326294;76;50245;-72
2023/02/20 08:48:21;;;;;;;;;;;;;;;17.89;60.56;100800.30;2282989;77;51183;-72
2023/02/20 08:51:23;;;;;;;;;;;;;;;17.94;60.34;100793.41;2263221;78;50261;-71
2023/02/20 08:54:24;;;;;;;;;;;;;;;17.93;60.34;100782.86;2286776;78;51445;-71
2023/02/20 08:57:26;;;;;;;;;;;;;;;17.93;60.29;100777.03;2286955;78;50225;-72
2023/02/20 09:00:27;;;;;;;;;;;;;;;17.87;60.44;100760.31;2262825;78;52309;-72
2023/02/20 09:03:29;;;;;;;;;;;;;;;17.86;60.44;100769.36;2262068;78;50232;-72
2023/02/20 09:06:30;;;;;;;;;;;;;;;17.85;60.42;100758.30;2262075;78;50398;-72
2023/02/20 09:09:32;;;;;;;;;;;;;;;17.77;60.64;100740.92;2286598;78;50243;-72
2023/02/20 09:12:34;;;;;;;;;;;;;;;17.70;60.96;100743.97;2237243;78;51601;-72
2023/02/20 09:15:38;;;;;;;;;;;;;;;17.66;61.01;100716.73;2262092;78;51405;-72
2023/02/20 09:18:38;;;;;;;;;;;;;;;17.67;60.97;100706.34;2310267;76;22181;-72
2023/02/20 09:21:40;;;;;;;;;;;;;;;17.77;60.71;100705.63;2263398;78;50360;-72
2023/02/20 09:24:42;;;;;;;;;;;;;;;17.83;60.47;100707.64;2237724;78;50584;-72
2023/02/20 09:27:43;;;;;;;;;;;;;;;17.91;60.25;100686.69;2262958;78;50611;-72
2023/02/20 09:30:45;;;;;;;;;;;;;;;17.84;60.35;100683.88;2287278;78;50225;-72
2023/02/20 09:33:46;;;;;;;;;;;;;;;17.84;60.34;100671.83;2263126;78;50520;-72
2023/02/20 09:36:48;;;;;;;;;;;;;;;17.80;60.41;100674.55;2264681;78;50835;-72
2023/02/20 09:39:50;;;;;;;;;;;;;;;17.76;60.61;100675.04;2262653;78;50726;-72
2023/02/20 09:42:53;;;;;;;;;;;;;;;17.70;60.74;100669.89;2287193;78;50238;-72
2023/02/20 09:46:02;;;;;;;;;;;;;;;17.64;60.92;100675.42;2286952;78;50744;-72
2023/02/20 09:49:11;;;;;;;;;;;;;;;17.63;61.10;100659.56;2311775;76;50428;-72
2023/02/20 09:52:13;;;;;;;;;;;;;;;17.63;60.99;100641.66;2298338;77;50455;-72
2023/02/20 09:55:18;;;;;;;;;;;;;;;17.66;60.88;100630.28;2298331;77;51643;-72
2023/02/20 09:58:21;;;;;;;;;;;;;;;17.73;60.71;100644.63;2298035;77;50703;-72
2023/02/20 10:01:23;;;;;;;;;;;;;;;17.84;60.38;100631.67;2250835;78;52551;-72
2023/02/20 10:04:29;;;;;;;;;;;;;;;17.89;60.20;100624.45;2257526;79;51517;-72
2023/02/20 10:07:34;;;;;;;;;;;;;;;17.96;60.01;100636.63;2256288;77;51518;-72
2023/02/20 10:10:40;;;;;;;;;;;;;;;17.94;59.98;100635.97;2257649;79;50297;-72
2023/02/20 10:13:43;;;;;;;;;;;;;;;17.92;60.02;100650.86;2257383;78;22312;-72
2023/02/20 10:16:48;;;;;;;;;;;;;;;17.87;60.10;100643.87;2256754;77;52407;-72
2023/02/20 10:19:51;;;;;;;;;;;;;;;17.82;60.26;100638.22;2285201;77;50778;-72
2023/02/20 10:22:57;;;;;;;;;;;;;;;17.75;60.45;100635.89;2303052;77;50302;-72
2023/02/20 10:26:04;;;;;;;;;;;;;;;17.70;60.69;100628.89;2272025;77;52555;-72
2023/02/20 10:29:16;;;;;;;;;;;;;;;17.67;60.84;100637.28;2302995;77;50312;-72
2023/02/20 10:32:31;;;;;;;;;;;;;;;17.65;60.75;100618.75;2303198;77;50694;-72
2023/02/20 10:35:35;;;;;;;;;;;;;;;17.69;60.67;100616.54;2302894;77;50477;-72
2023/02/20 10:38:41;;;;;;;;;;;;;;;17.81;60.28;100619.17;2272020;77;51785;-72
2023/02/20 10:41:50;;;;;;;;;;;;;;;17.88;60.06;100604.55;2303160;77;51496;-72
2023/02/20 10:44:55;;;;;;;;;;;;;;;17.86;60.04;100608.76;2303304;77;22329;-72
2023/02/20 10:48:01;;;;;;;;;;;;;;;17.89;59.99;100599.03;2290251;77;51521;-72
2023/02/20 10:51:04;;;;;;;;;;;;;;;17.83;60.05;100587.71;2261408;78;51463;-72
2023/02/20 10:54:23;;;;;;;;;;;;;;;17.76;60.25;100592.08;2284973;78;50331;-72
2023/02/20 10:57:31;;;;;;;;;;;;;;;17.71;60.38;100593.12;2225053;80;51591;-73
2023/02/20 11:00:34;;;;;;;;;;;;;;;17.66;60.66;100574.09;2282387;78;51550;-73
2023/02/20 11:03:43;;;;;;;;;;;;;;;17.62;60.78;100573.11;2296278;76;51737;-72
2023/02/20 11:06:45;;;;;;;;;;;;;;;17.63;60.67;100567.25;2334639;76;51471;-72
2023/02/20 11:09:47;;;;;;;;;;;;;;;17.65;60.58;100547.84;2334605;76;50313;-72
2023/02/20 11:12:50;;;;;;;;;;;;;;;17.69;60.51;100552.31;2334741;76;50207;-72
2023/02/20 11:15:52;;;;;;;;;;;;;;;17.84;60.07;100555.39;2300424;76;52563;-72
2023/02/20 11:18:55;;;;;;;;;;;;;;;17.95;59.67;100554.12;2301423;76;50259;-72
2023/02/20 11:21:57;;;;;;;;;;;;;;;17.96;59.59;100557.14;2295481;77;50286;-72
2023/02/20 11:25:00;;;;;;;;;;;;;;;17.93;59.67;100562.01;2262472;77;50654;-72
2023/02/20 11:28:13;;;;;;;;;;;;;;;17.89;59.72;100549.50;2261686;77;51717;-71
2023/02/20 11:31:16;;;;;;;;;;;;;;;17.87;59.78;100556.05;2295438;77;51404;-72
2023/02/20 11:34:20;;;;;;;;;;;;;;;17.84;59.82;100555.39;2295186;77;50805;-72
2023/02/20 11:37:22;;;;;;;;;;;;;;;17.79;59.96;100548.41;2295373;77;51487;-72
2023/02/20 11:40:25;;;;;;;;;;;;;;;17.72;60.20;100552.78;2261959;77;51086;-72
2023/02/20 11:43:28;;;;;;;;;;;;;;;17.67;60.46;100546.30;2295389;77;51440;-72
2023/02/20 11:46:29;;;;;;;;;;;;;;;17.63;60.44;100544.51;2293218;77;50228;-72
2023/02/20 11:49:31;;;;;;;;;;;;;;;17.66;60.38;100542.80;2283054;76;50625;-72
2023/02/20 11:52:32;;;;;;;;;;;;;;;17.78;60.04;100556.09;2300207;76;52455;-72
2023/02/20 11:55:34;;;;;;;;;;;;;;;17.83;59.86;100560.44;2334707;76;51594;-72
2023/02/20 11:58:36;;;;;;;;;;;;;;;17.88;59.66;100539.83;2334347;76;51420;-72
2023/02/20 12:01:37;;;;;;;;;;;;;;;17.93;59.49;100550.82;2326565;76;51538;-72
2023/02/20 12:04:39;;;;;;;;;;;;;;;17.85;59.66;100537.48;2300189;76;52107;-72
2023/02/20 12:07:45;;;;;;;;;;;;;;;17.86;59.65;100531.65;2334650;76;51438;-72
2023/02/20 12:10:47;;;;;;;;;;;;;;;17.81;59.75;100546.39;2330963;76;50277;-72
2023/02/20 12:13:49;;;;;;;;;;;;;;;17.74;59.93;100533.88;2334979;76;50393;-72
2023/02/20 12:17:08;;;;;;;;;;;;;;;17.69;60.16;100538.94;2290184;76;50096;-72
2023/02/20 12:20:16;;;;;;;;;;;;;;;17.64;60.30;100526.92;2313435;76;50654;-72
2023/02/20 12:23:25;;;;;;;;;;;;;;;17.62;60.32;100532.98;2323009;76;50487;-72
2023/02/20 12:26:44;;;;;;;;;;;;;;;17.66;60.20;100525.92;2322771;76;50249;-72
2023/02/20 12:29:46;;;;;;;;;;;;;;;17.76;59.98;100531.86;2298346;76;50036;-72
2023/02/20 12:32:49;;;;;;;;;;;;;;;17.86;59.60;100528.45;2322800;76;51503;-72
2023/02/20 12:36:09;;;;;;;;;;;;;;;17.94;59.40;100527.55;2322836;75;50784;-72
2023/02/20 12:39:15;;;;;;;;;;;;;;;17.98;59.23;100523.48;2322767;76;50282;-72
2023/02/20 12:42:19;;;;;;;;;;;;;;;17.94;59.30;100531.56;2298336;76;52705;-73
2023/02/20 12:45:22;;;;;;;;;;;;;;;17.88;59.41;100525.58;2322792;76;51486;-72
2023/02/20 12:48:28;;;;;;;;;;;;;;;17.87;59.41;100522.59;2283474;76;51207;-72
2023/02/20 12:51:32;;;;;;;;;;;;;;;17.84;59.48;100522.45;2328089;76;50550;-72
2023/02/20 12:54:38;;;;;;;;;;;;;;;17.74;59.69;100511.95;2300138;76;52441;-72
2023/02/20 12:57:56;;;;;;;;;;;;;;;17.69;60.02;100505.49;2334695;76;51496;-72
2023/02/20 13:01:02;;;;;;;;;;;;;;;17.64;60.02;100513.54;2334445;76;51499;-72
2023/02/20 13:04:05;;;;;;;;;;;;;;;17.65;60.04;100522.42;2334719;76;50351;-72
2023/02/20 13:07:08;;;;;;;;;;;;;;;17.70;59.94;100532.56;2333885;76;50785;-72
2023/02/20 13:10:11;;;;;;;;;;;;;;;17.79;59.70;100519.45;2334402;76;50671;-72
2023/02/20 13:13:13;;;;;;;;;;;;;;;17.89;59.43;100529.43;2334846;76;50679;-72
2023/02/20 13:16:19;;;;;;;;;;;;;;;17.93;59.28;100522.72;2334511;76;51421;-72
2023/02/20 13:19:40;;;;;;;;;;;;;;;17.94;59.20;100531.56;2238991;78;51280;-72
2023/02/20 13:22:42;;;;;;;;;;;;;;;17.96;59.12;100521.00;2246431;79;51375;-71
2023/02/20 13:25:43;;;;;;;;;;;;;;;17.93;59.14;100530.74;2246459;79;51512;-72
2023/02/20 13:28:45;;;;;;;;;;;;;;;17.91;59.18;100522.56;2223002;79;50675;-71
2023/02/20 13:31:47;;;;;;;;;;;;;;;17.89;59.20;100521.40;2223353;79;51170;-72
2023/02/20 13:34:49;;;;;;;;;;;;;;;17.83;59.31;100523.48;2246342;79;51491;-72
2023/02/20 13:37:52;;;;;;;;;;;;;;;17.71;59.71;100518.19;2246552;79;51451;-72
2023/02/20 13:40:58;;;;;;;;;;;;;;;17.67;59.84;100524.91;2246287;79;50141;-72
2023/02/20 13:44:01;;;;;;;;;;;;;;;17.72;59.71;100519.84;2246611;79;52451;-73
2023/02/20 13:47:03;;;;;;;;;;;;;;;17.76;59.64;100521.16;2257454;76;51637;-73
2023/02/20 13:50:06;;;;;;;;;;;;;;;17.88;59.33;100526.92;2330292;76;51490;-73
2023/02/20 13:53:08;;;;;;;;;;;;;;;17.96;59.08;100539.74;2333258;76;50671;-73
2023/02/20 13:56:17;;;;;;;;;;;;;;;17.98;58.96;100539.06;2300223;76;49604;-73
2023/02/20 13:59:19;;;;;;;;;;;;;;;17.96;59.00;100529.03;2334287;76;51480;-73
2023/02/20 14:02:29;;;;;;;;;;;;;;;17.97;58.93;100525.84;2326366;76;50112;-72
2023/02/20 14:05:26;;;;;;;;;;;;;;;17.92;59.02;100533.59;2332212;75;22384;-73
2023/02/20 14:08:28;;;;;;;;;;;;;;;17.92;59.02;100530.91;2299829;76;52628;-73
2023/02/20 14:11:34;;;;;;;;;;;;;;;17.83;59.22;100542.21;2334686;76;51438;-73
2023/02/20 14:14:37;;;;;;;;;;;;;;;17.76;59.48;100531.34;2333915;76;50213;-73
2023/02/20 14:17:39;;;;;;;;;;;;;;;17.69;59.67;100533.59;2321552;76;50704;-73
2023/02/20 14:20:41;;;;;;;;;;;;;;;17.71;59.66;100538.26;2261777;78;52642;-72
2023/02/20 14:23:43;;;;;;;;;;;;;;;17.75;59.61;100541.74;2246537;79;50402;-73
2023/02/20 14:26:44;;;;;;;;;;;;;;;17.88;59.29;100528.27;2246492;79;50425;-73
2023/02/20 14:29:46;;;;;;;;;;;;;;;17.96;59.05;100535.73;2246224;79;50316;-71
2023/02/20 14:32:48;;;;;;;;;;;;;;;18.05;58.85;100542.65;2248050;78;51090;-72
2023/02/20 14:35:55;;;;;;;;;;;;;;;18.08;58.69;100534.76;2218455;79;51563;-71
2023/02/20 14:38:58;;;;;;;;;;;;;;;18.10;58.61;100537.27;2246150;78;50692;-71
2023/02/20 14:42:00;;;;;;;;;;;;;;;18.06;58.68;100540.31;2246676;78;51534;-71
2023/02/20 14:45:03;;;;;;;;;;;;;;;18.02;58.74;100550.23;2248057;79;51315;-71
2023/02/20 14:48:05;;;;;;;;;;;;;;;17.99;58.75;100547.92;2255066;78;52519;-71
2023/02/20 14:51:24;;;;;;;;;;;;;;;17.98;58.74;100552.45;2253665;78;51442;-71
2023/02/20 14:54:28;;;;;;;;;;;;;;;17.93;58.88;100549.48;2246571;79;50377;-72
2023/02/20 14:57:29;;;;;;;;;;;;;;;17.78;59.27;100528.51;2224206;79;22356;-71
2023/02/20 15:00:33;;;;;;;;;;;;;;;17.75;59.42;100524.83;2246217;79;51454;-71
2023/02/20 15:03:35;;;;;;;;;;;;;;;17.79;59.32;100523.47;2246619;77;50251;-71
2023/02/20 15:06:38;;;;;;;;;;;;;;;17.84;59.29;100521.11;2249600;79;51574;-71
2023/02/20 15:09:41;;;;;;;;;;;;;;;17.99;58.94;100519.30;2217803;79;51737;-72
2023/02/20 15:12:43;;;;;;;;;;;;;;;18.05;58.71;100523.91;2249168;78;50658;-72
2023/02/20 15:15:45;;;;;;;;;;;;;;;18.11;58.57;100526.39;2249667;79;51358;-72
2023/02/20 15:18:47;;;;;;;;;;;;;;;18.10;58.54;100514.51;2268405;76;50254;-72
2023/02/20 15:21:56;;;;;;;;;;;;;;;18.05;58.63;100537.81;2292379;76;50934;-72
2023/02/20 15:25:14;;;;;;;;;;;;;;;18.04;58.63;100524.94;2318109;76;51601;-71
2023/02/20 15:28:22;;;;;;;;;;;;;;;18.00;58.68;100510.23;2323787;76;50676;-72
2023/02/20 15:31:23;;;;;;;;;;;;;;;18.00;58.67;100511.58;2324089;76;51534;-72
2023/02/20 15:34:26;;;;;;;;;;;;;;;17.94;58.81;100510.98;2292337;76;51361;-71
2023/02/20 15:37:35;;;;;;;;;;;;;;;17.84;59.07;100508.55;2264494;76;50159;-73
2023/02/20 15:40:36;;;;;;;;;;;;;;;17.78;59.31;100507.09;2287316;78;49975;-72
2023/02/20 15:43:38;;;;;;;;;;;;;;;17.86;59.36;100500.36;2287481;78;50354;-75
2023/02/20 15:46:39;;;;;;;;;;;;;;;17.89;60.26;100502.66;2232841;78;51667;-75
2023/02/20 15:49:41;;;;;;;;;;;;;;;18.04;60.43;100494.66;2278426;76;50163;-73
2023/02/20 15:52:43;;;;;;;;;;;;;;;18.09;60.74;100506.16;2280175;78;50699;-74
2023/02/20 15:55:45;;;;;;;;;;;;;;;18.17;60.71;100497.52;2287434;78;50393;-73
2023/02/20 15:58:46;;;;;;;;;;;;;;;18.13;60.51;100508.78;2249998;78;50996;-74
2023/02/20 16:01:48;;;;;;;;;;;;;;;18.14;60.25;100517.16;2250161;78;50203;-73
2023/02/20 16:04:50;;;;;;;;;;;;;;;18.14;60.04;100509.95;2249357;78;50324;-76
2023/02/20 16:07:51;;;;;;;;;;;;;;;18.11;60.03;100508.13;2268008;78;51533;-74
2023/02/20 16:10:53;;;;;;;;;;;;;;;18.11;59.94;100506.79;2284763;77;50252;-74